Time;durP1;ratioP1;P1;durP2;ratioP2;P2;SDS_P1;SDS_P2;PMS_P1;PMS_P2;Temp;Humidity;BMP_temperature;BMP_pressure;BME280_temperature;BME280_humidity;BME280_pressure;Samples;Min_cycle;Max_cycle;Signal;HPM_P1;HPM_P2
2023/05/22 00:00:03;;;;;;;11.35;6.10;;;15.10;99.90;;;;;;5094357;28;20053;-72
2023/05/22 00:02:31;;;;;;;;;;;15.10;99.90;;;;;;5093150;28;20442;-72
2023/05/22 00:04:57;;;;;;;21.17;7.85;;;15.10;99.90;;;;;;5090773;28;19916;-73
2023/05/22 00:07:23;;;;;;;19.63;7.18;;;15.10;99.90;;;;;;5092536;28;20035;-71
2023/05/22 00:09:48;;;;;;;16.45;6.93;;;15.20;99.90;;;;;;5094244;28;20023;-71
2023/05/22 00:12:17;;;;;;;15.02;6.38;;;15.10;99.90;;;;;;5093283;28;20032;-70
2023/05/22 00:14:52;;;;;;;16.35;7.30;;;15.10;99.90;;;;;;5091444;28;20050;-71
2023/05/22 00:17:22;;;;;;;17.55;7.75;;;15.10;99.90;;;;;;5095557;28;20077;-71
2023/05/22 00:19:48;;;;;;;22.05;7.65;;;15.10;99.90;;;;;;5091667;28;20057;-71
2023/05/22 00:22:23;;;;;;;18.27;6.75;;;15.10;99.90;;;;;;5094492;28;20036;-72
2023/05/22 00:24:54;;;;;;;17.70;6.75;;;15.20;99.90;;;;;;5094803;28;20031;-71
2023/05/22 00:27:20;;;;;;;15.85;7.53;;;15.20;99.90;;;;;;5092200;28;20459;-73
2023/05/22 00:29:45;;;;;;;12.13;6.35;;;15.10;99.90;;;;;;5093074;28;20113;-71
2023/05/22 00:32:11;;;;;;;16.13;7.30;;;15.10;99.90;;;;;;5094299;28;20154;-71
2023/05/22 00:34:36;;;;;;;16.33;7.03;;;15.10;99.90;;;;;;5094895;28;20048;-72
2023/05/22 00:37:02;;;;;;;16.33;7.45;;;15.10;99.90;;;;;;5096275;28;20055;-71
2023/05/22 00:39:27;;;;;;;12.80;6.85;;;15.10;99.90;;;;;;5092978;28;20527;-71
2023/05/22 00:41:53;;;;;;;21.83;8.75;;;15.00;99.90;;;;;;5090966;28;20036;-72
2023/05/22 00:44:22;;;;;;;16.35;7.28;;;15.00;99.90;;;;;;5095443;28;20043;-72
2023/05/22 00:46:48;;;;;;;25.35;8.45;;;15.00;99.90;;;;;;5092559;28;20560;-72
2023/05/22 00:49:19;;;;;;;16.75;7.35;;;15.00;99.90;;;;;;5096245;28;20032;-72
2023/05/22 00:51:45;;;;;;;20.05;7.63;;;14.90;99.90;;;;;;5092218;28;20123;-72
2023/05/22 00:54:12;;;;;;;19.30;7.80;;;14.90;99.90;;;;;;5095901;28;20165;-72
2023/05/22 00:56:38;;;;;;;17.30;8.60;;;14.90;99.90;;;;;;5092893;28;20037;-71
2023/05/22 00:59:04;;;;;;;18.85;9.27;;;14.80;99.90;;;;;;5087838;28;20029;-73
2023/05/22 01:01:32;;;;;;;19.73;8.18;;;14.80;99.90;;;;;;5086271;28;20508;-72
2023/05/22 01:04:03;;;;;;;21.75;8.15;;;14.80;99.90;;;;;;5095481;28;20550;-71
2023/05/22 01:06:30;;;;;;;20.52;8.75;;;14.80;99.90;;;;;;5094855;28;20043;-72
2023/05/22 01:08:56;;;;;;;23.60;8.80;;;14.80;99.90;;;;;;5094197;28;20043;-72
2023/05/22 01:11:40;;;;;;;28.50;9.32;;;14.80;99.90;;;;;;5088001;28;20115;-71
2023/05/22 01:14:39;;;;;;;22.95;8.75;;;14.70;99.90;;;;;;5091320;28;20139;-72
2023/05/22 01:17:10;;;;;;;16.33;8.38;;;14.70;99.90;;;;;;5119659;27;20107;-72
2023/05/22 01:20:06;;;;;;;18.52;7.80;;;14.70;99.90;;;;;;5084478;28;20032;-72
2023/05/22 01:22:41;;;;;;;19.10;7.80;;;14.60;99.90;;;;;;5084934;28;20039;-73
2023/05/22 01:25:52;;;;;;;18.67;8.88;;;14.60;99.90;;;;;;5087381;28;20048;-72
2023/05/22 01:28:40;;;;;;;21.17;8.00;;;14.60;99.90;;;;;;5093920;28;20034;-71
2023/05/22 01:31:12;;;;;;;18.95;8.82;;;14.60;99.90;;;;;;5089597;28;20031;-70
2023/05/22 01:33:59;;;;;;;20.48;7.82;;;14.50;99.90;;;;;;5092298;28;20123;-73
2023/05/22 01:36:29;;;;;;;25.42;8.68;;;14.50;99.90;;;;;;5086418;28;20031;-71
2023/05/22 01:39:07;;;;;;;24.67;9.38;;;14.40;99.90;;;;;;5088473;28;20116;-71
2023/05/22 01:41:34;;;;;;;23.20;8.60;;;14.40;99.90;;;;;;5088604;28;20036;-72
2023/05/22 01:44:03;;;;;;;16.65;8.07;;;14.40;99.90;;;;;;5097517;28;20040;-71
2023/05/22 01:46:29;;;;;;;17.80;7.57;;;14.30;99.90;;;;;;5097903;28;20031;-72
2023/05/22 01:49:01;;;;;;;18.33;8.55;;;14.30;99.90;;;;;;5096713;28;20093;-72
2023/05/22 01:51:52;;;;;;;22.98;9.68;;;14.20;99.90;;;;;;5098159;28;20060;-72
2023/05/22 01:54:30;;;;;;;20.60;7.90;;;14.20;99.90;;;;;;5084582;28;20501;-72
2023/05/22 01:57:06;;;;;;;17.45;7.63;;;14.20;99.90;;;;;;5092570;28;20701;-72
2023/05/22 01:59:47;;;;;;;21.25;8.02;;;14.10;99.90;;;;;;5088494;28;20207;-73
2023/05/22 02:02:18;;;;;;;16.40;7.85;;;14.10;99.90;;;;;;5089244;28;20115;-72
2023/05/22 02:04:49;;;;;;;21.08;9.00;;;14.10;99.90;;;;;;5090784;28;20044;-71
2023/05/22 02:07:18;;;;;;;18.77;7.85;;;14.00;99.90;;;;;;5095076;28;20051;-71
2023/05/22 02:09:45;;;;;;;17.85;7.80;;;14.00;99.90;;;;;;5086887;28;20059;-71
2023/05/22 02:12:11;;;;;;;20.98;8.20;;;14.00;99.90;;;;;;5087504;28;20495;-72
2023/05/22 02:14:37;;;;;;;16.15;7.78;;;14.00;99.90;;;;;;5089156;28;20044;-73
2023/05/22 02:17:04;;;;;;;18.27;7.22;;;14.00;99.90;;;;;;5087459;28;20032;-72
2023/05/22 02:19:32;;;;;;;21.83;8.30;;;13.90;99.90;;;;;;5088142;28;20043;-72
2023/05/22 02:21:58;;;;;;;14.30;6.82;;;13.90;99.90;;;;;;5088778;28;20464;-72
2023/05/22 02:24:31;;;;;;;15.57;7.82;;;13.90;99.90;;;;;;5088127;28;20142;-72
2023/05/22 02:27:00;;;;;;;16.92;8.00;;;13.80;99.90;;;;;;5089127;28;20488;-72
2023/05/22 02:29:28;;;;;;;17.55;9.02;;;13.80;99.90;;;;;;5098717;28;20032;-71
2023/05/22 02:31:54;;;;;;;21.75;7.70;;;13.80;99.90;;;;;;5094408;28;20051;-72
2023/05/22 02:34:20;;;;;;;17.38;8.57;;;13.80;99.90;;;;;;5090899;28;20040;-71
2023/05/22 02:36:49;;;;;;;16.52;8.15;;;13.80;99.90;;;;;;5086451;28;20050;-72
2023/05/22 02:39:18;;;;;;;21.00;8.30;;;13.80;99.90;;;;;;5084109;28;20036;-72
2023/05/22 02:41:46;;;;;;;19.13;7.72;;;13.80;99.90;;;;;;5093833;28;20531;-73
2023/05/22 02:44:12;;;;;;;16.48;7.38;;;13.70;99.90;;;;;;5087329;28;20119;-71
2023/05/22 02:46:37;;;;;;;16.85;8.38;;;13.70;99.90;;;;;;5089146;28;20147;-71
2023/05/22 02:49:03;;;;;;;20.52;7.95;;;13.80;99.90;;;;;;5088883;28;20504;-70
2023/05/22 02:51:28;;;;;;;20.55;8.55;;;13.80;99.90;;;;;;5089342;28;20516;-72
2023/05/22 02:54:00;;;;;;;22.65;8.77;;;13.80;99.90;;;;;;5086142;28;20227;-71
2023/05/22 02:56:27;;;;;;;16.38;6.97;;;13.70;99.90;;;;;;5087313;28;20034;-72
2023/05/22 02:58:56;;;;;;;19.45;8.77;;;13.70;99.90;;;;;;5094179;28;20036;-71
2023/05/22 03:01:22;;;;;;;22.15;8.75;;;13.70;99.90;;;;;;5097816;28;20061;-72
2023/05/22 03:03:48;;;;;;;21.60;8.25;;;13.70;99.90;;;;;;5085677;28;20539;-72
2023/05/22 03:06:14;;;;;;;18.90;8.15;;;13.60;99.90;;;;;;5087537;28;20469;-71
2023/05/22 03:08:42;;;;;;;18.95;7.97;;;13.60;99.90;;;;;;5093782;28;20121;-72
2023/05/22 03:11:11;;;;;;;21.30;7.50;;;13.70;99.90;;;;;;5096404;28;20065;-71
2023/05/22 03:13:39;;;;;;;19.73;8.30;;;13.60;99.90;;;;;;5089599;28;20036;-72
2023/05/22 03:16:05;;;;;;;23.98;8.48;;;13.70;99.90;;;;;;5093362;28;20119;-72
2023/05/22 03:18:30;;;;;;;20.15;9.15;;;13.70;99.90;;;;;;5088596;28;20162;-72
2023/05/22 03:20:56;;;;;;;13.30;7.70;;;13.60;99.90;;;;;;5088777;28;20499;-71
2023/05/22 03:23:21;;;;;;;18.00;7.60;;;13.60;99.90;;;;;;5096512;28;20563;-72
2023/05/22 03:25:56;;;;;;;15.38;7.82;;;13.60;99.90;;;;;;5085545;28;20495;-71
2023/05/22 03:28:21;;;;;;;18.73;8.43;;;13.60;99.90;;;;;;5092099;28;20036;-72
2023/05/22 03:30:47;;;;;;;19.27;8.25;;;13.50;99.90;;;;;;5087805;28;20028;-71
2023/05/22 03:33:21;;;;;;;17.00;7.43;;;13.50;99.90;;;;;;5096844;28;20039;-73
2023/05/22 03:35:47;;;;;;;22.67;8.80;;;13.50;99.90;;;;;;5085594;28;20479;-72
2023/05/22 03:38:13;;;;;;;15.40;7.82;;;13.50;99.90;;;;;;5101375;28;20047;-71
2023/05/22 03:40:38;;;;;;;14.73;7.32;;;13.50;99.90;;;;;;5091315;28;20448;-71
2023/05/22 03:43:07;;;;;;;17.98;8.27;;;13.50;99.90;;;;;;5086035;28;20031;-71
2023/05/22 03:45:32;;;;;;;22.67;8.07;;;13.50;99.90;;;;;;5090239;28;20117;-71
2023/05/22 03:48:04;;;;;;;18.20;8.38;;;13.40;99.90;;;;;;5089917;28;20044;-72
2023/05/22 03:50:32;;;;;;;19.52;7.60;;;13.40;99.90;;;;;;5092595;28;20038;-72
2023/05/22 03:53:04;;;;;;;18.25;7.63;;;13.40;99.90;;;;;;5089731;28;20504;-71
2023/05/22 03:55:33;;;;;;;18.48;7.70;;;13.40;99.90;;;;;;5091470;28;20256;-72
2023/05/22 03:58:04;;;;;;;19.80;8.63;;;13.40;99.90;;;;;;5088879;28;20043;-72
2023/05/22 04:00:30;;;;;;;16.05;8.20;;;13.40;99.90;;;;;;5086797;28;20044;-72
2023/05/22 04:02:59;;;;;;;21.05;8.32;;;13.40;99.90;;;;;;5089030;28;20036;-73
2023/05/22 04:05:25;;;;;;;23.58;9.15;;;13.50;99.90;;;;;;5086922;28;20080;-71
2023/05/22 04:07:50;;;;;;;25.75;9.13;;;13.50;99.90;;;;;;5088780;28;20032;-71
2023/05/22 04:10:16;;;;;;;20.23;9.38;;;13.60;99.90;;;;;;5094099;28;20393;-70
2023/05/22 04:12:45;;;;;;;20.52;8.65;;;13.60;99.90;;;;;;5084253;28;20120;-72
2023/05/22 04:15:10;;;;;;;18.70;9.32;;;13.60;99.90;;;;;;5082316;28;20630;-71
2023/05/22 04:17:38;;;;;;;20.88;9.70;;;13.60;99.90;;;;;;5090781;28;20123;-72
2023/05/22 04:20:05;;;;;;;26.42;10.02;;;13.60;99.90;;;;;;5092292;28;20106;-72
2023/05/22 04:22:34;;;;;;;22.92;10.45;;;13.70;99.90;;;;;;5091760;28;20032;-76
2023/05/22 04:25:06;;;;;;;25.65;9.88;;;13.70;99.90;;;;;;5089287;28;20032;-71
2023/05/22 04:27:33;;;;;;;19.75;10.27;;;13.70;99.90;;;;;;5089224;28;20065;-71
2023/05/22 04:30:01;;;;;;;21.58;9.48;;;13.70;99.90;;;;;;5093597;28;20074;-71
2023/05/22 04:32:28;;;;;;;25.25;8.90;;;13.70;99.90;;;;;;5087092;28;20119;-72
2023/05/22 04:34:57;;;;;;;19.25;8.43;;;13.80;99.90;;;;;;5084913;28;20038;-72
2023/05/22 04:37:23;;;;;;;25.15;7.90;;;13.80;99.90;;;;;;5091961;28;20071;-72
2023/05/22 04:39:57;;;;;;;22.85;8.63;;;13.90;99.90;;;;;;5085492;28;20552;-72
2023/05/22 04:42:24;;;;;;;19.98;8.27;;;13.90;99.90;;;;;;5089875;28;20200;-71
2023/05/22 04:44:51;;;;;;;24.27;7.88;;;13.90;99.90;;;;;;5094374;28;20031;-73
2023/05/22 04:47:21;;;;;;;22.33;8.27;;;13.90;99.90;;;;;;5090473;28;20032;-73
2023/05/22 04:49:46;;;;;;;19.38;7.25;;;13.90;99.90;;;;;;5083478;28;20036;-71
2023/05/22 04:52:12;;;;;;;30.60;7.68;;;14.00;99.90;;;;;;5086017;28;20047;-71
2023/05/22 04:54:45;;;;;;;24.55;8.32;;;14.00;99.90;;;;;;5086484;28;20036;-71
2023/05/22 04:57:11;;;;;;;21.38;7.53;;;14.10;99.90;;;;;;5093945;28;20036;-72
2023/05/22 04:59:40;;;;;;;18.67;6.80;;;14.20;99.90;;;;;;5089780;28;20046;-73
2023/05/22 05:02:08;;;;;;;22.77;7.57;;;14.20;99.90;;;;;;5088511;28;20032;-71
2023/05/22 05:04:40;;;;;;;24.25;7.65;;;14.30;99.90;;;;;;5092372;27;20028;-72
2023/05/22 05:07:12;;;;;;;22.15;7.03;;;14.40;99.90;;;;;;5087006;28;20059;-71
2023/05/22 05:09:37;;;;;;;27.88;8.10;;;14.50;99.90;;;;;;5088075;28;20118;-71
2023/05/22 05:12:06;;;;;;;22.42;7.95;;;14.50;99.90;;;;;;5086273;28;20115;-72
2023/05/22 05:14:31;;;;;;;18.73;7.60;;;14.60;99.90;;;;;;5095648;28;20547;-71
2023/05/22 05:17:01;;;;;;;19.20;7.35;;;14.70;99.90;;;;;;5089989;27;20050;-72
2023/05/22 05:19:26;;;;;;;21.02;7.43;;;14.70;99.90;;;;;;5094749;28;20044;-72
2023/05/22 05:21:52;;;;;;;21.65;7.90;;;14.80;99.90;;;;;;5091249;28;20039;-72
2023/05/22 05:24:17;;;;;;;24.08;7.70;;;14.90;99.90;;;;;;5086762;28;20040;-72
2023/05/22 05:26:43;;;;;;;21.58;8.05;;;15.00;99.90;;;;;;5088639;28;20036;-71
2023/05/22 05:29:09;;;;;;;19.52;7.75;;;15.10;99.90;;;;;;5092839;28;20132;-74
2023/05/22 05:31:38;;;;;;;17.92;7.30;;;15.10;99.90;;;;;;5091696;28;20032;-72
2023/05/22 05:34:04;;;;;;;19.65;7.93;;;15.20;99.90;;;;;;5118908;27;20473;-71
2023/05/22 05:36:30;;;;;;;20.38;8.25;;;15.30;99.90;;;;;;5089335;28;20040;-71
2023/05/22 05:38:59;;;;;;;20.02;8.57;;;15.50;99.90;;;;;;5087415;28;20043;-71
2023/05/22 05:41:27;;;;;;;24.17;9.02;;;15.70;99.90;;;;;;5089708;28;20181;-73
2023/05/22 05:43:56;;;;;;;19.50;7.55;;;15.80;99.90;;;;;;5094876;28;20043;-71
2023/05/22 05:46:21;;;;;;;23.13;8.25;;;16.10;99.90;;;;;;5093674;28;20081;-71
2023/05/22 05:48:47;;;;;;;17.02;7.38;;;16.30;99.90;;;;;;5088069;28;20125;-72
2023/05/22 05:51:13;;;;;;;16.17;6.90;;;16.50;99.90;;;;;;5087499;28;20039;-73
2023/05/22 05:53:41;;;;;;;17.48;7.15;;;16.80;99.90;;;;;;5085547;28;20138;-72
2023/05/22 05:56:10;;;;;;;16.80;7.07;;;17.00;99.90;;;;;;5085280;28;20579;-71
2023/05/22 05:58:36;;;;;;;13.23;6.88;;;17.20;99.90;;;;;;5086123;28;20029;-73
2023/05/22 06:01:01;;;;;;;19.05;6.38;;;17.60;99.90;;;;;;5092205;27;20165;-71
2023/05/22 06:03:31;;;;;;;15.52;7.15;;;17.80;99.90;;;;;;5088735;28;20020;-73
2023/05/22 06:05:57;;;;;;;17.63;6.67;;;18.10;99.90;;;;;;5094348;28;20075;-72
2023/05/22 06:08:31;;;;;;;18.27;6.85;;;18.60;99.90;;;;;;5090757;28;20115;-74
2023/05/22 06:10:56;;;;;;;15.30;6.68;;;19.20;99.90;;;;;;5079154;28;20040;-72
2023/05/22 06:13:24;;;;;;;13.82;6.20;;;19.90;99.90;;;;;;5094059;27;20046;-72
2023/05/22 06:15:56;;;;;;;15.27;6.18;;;20.70;99.90;;;;;;5089371;28;20038;-72
2023/05/22 06:18:24;;;;;;;18.25;6.45;;;21.30;99.90;;;;;;5090064;28;20476;-72
2023/05/22 06:20:49;;;;;;;13.73;6.15;;;21.50;99.90;;;;;;5089315;28;20028;-72
2023/05/22 06:23:15;;;;;;;13.60;5.28;;;21.70;99.90;;;;;;5097632;27;20361;-71
2023/05/22 06:25:40;;;;;;;13.63;6.50;;;22.30;99.90;;;;;;5088018;28;20043;-72
2023/05/22 06:28:06;;;;;;;15.18;6.70;;;22.80;99.90;;;;;;5092034;28;20152;-72
2023/05/22 06:30:35;;;;;;;11.48;5.78;;;23.20;99.90;;;;;;5088748;28;20060;-72
2023/05/22 06:33:02;;;;;;;17.13;7.28;;;23.60;99.90;;;;;;5090131;28;20039;-72
2023/05/22 06:35:28;;;;;;;21.95;7.88;;;24.00;99.90;;;;;;5092176;28;20020;-71
2023/05/22 06:38:00;;;;;;;15.20;7.30;;;24.10;99.90;;;;;;5092561;28;20028;-72
2023/05/22 06:40:29;;;;;;;18.80;8.32;;;24.60;99.90;;;;;;5090566;28;20036;-71
2023/05/22 06:43:00;;;;;;;15.40;8.20;;;24.80;99.90;;;;;;5090754;28;20040;-73
2023/05/22 06:45:25;;;;;;;18.05;8.30;;;25.10;99.90;;;;;;5093154;28;20403;-73
2023/05/22 06:47:54;;;;;;;20.48;9.30;;;25.40;99.90;;;;;;5101726;28;20047;-74
2023/05/22 06:50:25;;;;;;;22.20;8.93;;;25.70;99.90;;;;;;5098031;28;20474;-73
2023/05/22 06:52:54;;;;;;;21.65;8.48;;;25.80;99.90;;;;;;5090114;28;20121;-71
2023/05/22 06:55:22;;;;;;;18.13;9.35;;;25.90;99.90;;;;;;5098470;28;20031;-71
2023/05/22 06:57:48;;;;;;;18.35;8.77;;;26.10;99.40;;;;;;5095779;28;20062;-73
2023/05/22 07:00:14;;;;;;;17.63;8.63;;;26.20;99.40;;;;;;5095447;27;20063;-73
2023/05/22 07:02:39;;;;;;;17.08;9.05;;;26.30;99.20;;;;;;5095094;28;20499;-72
2023/05/22 07:05:08;;;;;;;20.77;9.90;;;26.60;99.20;;;;;;5100409;28;20038;-72
2023/05/22 07:07:33;;;;;;;16.92;9.35;;;26.50;99.10;;;;;;5093005;28;20048;-71
2023/05/22 07:09:59;;;;;;;18.00;10.48;;;27.00;98.70;;;;;;5096767;28;20051;-72
2023/05/22 07:12:26;;;;;;;18.02;9.27;;;27.20;98.20;;;;;;5094067;27;20032;-74
2023/05/22 07:14:52;;;;;;;19.50;9.85;;;27.40;97.90;;;;;;5092088;28;20044;-73
2023/05/22 07:17:24;;;;;;;16.10;9.32;;;27.70;97.90;;;;;;5092929;28;20425;-73
2023/05/22 07:19:49;;;;;;;16.60;9.50;;;27.80;97.50;;;;;;5099312;27;20043;-72
2023/05/22 07:22:15;;;;;;;17.58;9.43;;;28.30;96.80;;;;;;5088722;28;20102;-72
2023/05/22 07:24:45;;;;;;;18.10;9.77;;;28.30;96.30;;;;;;5092804;28;20092;-76
2023/05/22 07:27:13;;;;;;;16.63;8.68;;;28.30;96.50;;;;;;5091655;28;20043;-72
2023/05/22 07:29:39;;;;;;;16.77;8.30;;;28.30;96.80;;;;;;5090784;28;20040;-73
2023/05/22 07:32:05;;;;;;;15.82;7.50;;;28.40;96.50;;;;;;5097263;28;20122;-73
2023/05/22 07:34:32;;;;;;;16.42;9.85;;;28.50;96.60;;;;;;5085980;28;20127;-73
2023/05/22 07:36:59;;;;;;;17.02;9.05;;;28.50;96.30;;;;;;5088972;28;20718;-73
2023/05/22 07:39:31;;;;;;;16.60;9.23;;;28.40;96.40;;;;;;5093489;28;20428;-73
2023/05/22 07:41:59;;;;;;;25.45;9.45;;;28.30;96.50;;;;;;5086288;28;20035;-71
2023/05/22 07:44:27;;;;;;;25.13;9.13;;;28.50;96.20;;;;;;5092996;28;20115;-73
2023/05/22 07:46:59;;;;;;;15.20;8.82;;;28.60;96.20;;;;;;5091276;28;20107;-73
2023/05/22 07:49:25;;;;;;;20.33;9.40;;;28.50;96.10;;;;;;5090327;28;20028;-74
2023/05/22 07:51:59;;;;;;;18.42;8.50;;;28.20;96.30;;;;;;5096829;27;20041;-71
2023/05/22 07:54:25;;;;;;;16.23;8.27;;;27.90;96.70;;;;;;5092895;28;20464;-73
2023/05/22 07:56:51;;;;;;;20.38;9.00;;;27.40;97.40;;;;;;5090140;28;20035;-73
2023/05/22 07:59:20;;;;;;;17.25;8.13;;;27.40;97.00;;;;;;5090593;28;20109;-72
2023/05/22 08:01:46;;;;;;;11.38;7.22;;;27.10;97.70;;;;;;5091576;28;20131;-71
2023/05/22 08:04:18;;;;;;;15.43;7.28;;;26.80;97.90;;;;;;5086423;28;20441;-72
2023/05/22 08:06:43;;;;;;;12.57;6.93;;;26.20;98.20;;;;;;5092299;28;20039;-72
2023/05/22 08:09:15;;;;;;;15.23;6.20;;;25.50;99.70;;;;;;5086599;28;20028;-73
2023/05/22 08:11:41;;;;;;;10.90;6.38;;;25.40;99.90;;;;;;5086887;28;20137;-73
2023/05/22 08:14:07;;;;;;;12.13;6.85;;;25.20;99.90;;;;;;5086589;28;20038;-72
2023/05/22 08:16:33;;;;;;;13.93;7.13;;;25.20;99.90;;;;;;5087900;28;20059;-72
2023/05/22 08:19:06;;;;;;;11.95;6.15;;;25.20;99.90;;;;;;5093244;28;20048;-71
2023/05/22 08:21:33;;;;;;;13.63;6.60;;;25.10;99.90;;;;;;5091957;28;20043;-71
2023/05/22 08:23:59;;;;;;;13.18;6.32;;;24.90;99.90;;;;;;5085149;28;20078;-71
2023/05/22 08:26:25;;;;;;;15.82;7.38;;;24.80;99.90;;;;;;5090330;28;20042;-71
2023/05/22 08:28:51;;;;;;;12.50;6.68;;;24.80;99.90;;;;;;5094852;28;20111;-72
2023/05/22 08:31:22;;;;;;;13.43;6.28;;;24.90;99.90;;;;;;5088793;28;20508;-71
2023/05/22 08:33:48;;;;;;;10.95;6.07;;;25.00;99.90;;;;;;5082724;28;20566;-70
2023/05/22 08:36:16;;;;;;;11.25;5.68;;;25.00;99.90;;;;;;5095858;28;20040;-72
2023/05/22 08:38:42;;;;;;;13.52;6.68;;;25.10;99.90;;;;;;5086837;28;20052;-71
2023/05/22 08:41:10;;;;;;;13.27;7.50;;;25.00;99.90;;;;;;5084093;28;20032;-71
2023/05/22 08:43:36;;;;;;;13.95;7.25;;;25.00;99.90;;;;;;5088320;28;20032;-70
2023/05/22 08:46:08;;;;;;;13.65;6.68;;;24.90;99.90;;;;;;5098781;28;20028;-70
2023/05/22 08:48:34;;;;;;;10.70;6.15;;;24.80;99.90;;;;;;5085567;28;20446;-72
2023/05/22 08:51:04;;;;;;;9.73;5.70;;;24.70;99.90;;;;;;5084086;28;20092;-72
2023/05/22 08:53:41;;;;;;;15.95;7.13;;;24.80;99.90;;;;;;5088025;28;20051;-73
2023/05/22 08:56:07;;;;;;;10.32;6.63;;;24.80;99.90;;;;;;5084705;28;20176;-72
2023/05/22 08:58:35;;;;;;;18.02;6.28;;;24.90;99.90;;;;;;5096936;28;20492;-73
2023/05/22 09:01:05;;;;;;;21.77;6.80;;;24.80;99.90;;;;;;5084141;28;20088;-71
2023/05/22 09:03:31;;;;;;;12.68;6.45;;;24.70;99.90;;;;;;5087578;28;20515;-72
2023/05/22 09:06:00;;;;;;;10.82;6.28;;;24.70;99.90;;;;;;5087581;28;20062;-72
2023/05/22 09:08:27;;;;;;;13.57;6.72;;;24.90;99.90;;;;;;5085356;28;20137;-70
2023/05/22 09:10:59;;;;;;;9.52;6.68;;;24.80;99.90;;;;;;5088167;28;20032;-72
2023/05/22 09:13:29;;;;;;;13.30;6.60;;;24.90;99.90;;;;;;5085586;28;20040;-74
2023/05/22 09:16:17;;;;;;;12.35;6.75;;;24.80;99.90;;;;;;5076772;28;20082;-73
2023/05/22 09:18:43;;;;;;;13.18;6.65;;;24.80;99.90;;;;;;5081873;28;20028;-72
2023/05/22 09:21:10;;;;;;;12.68;6.38;;;24.70;99.90;;;;;;5093688;28;20636;-72
2023/05/22 09:23:38;;;;;;;14.00;7.20;;;24.80;99.90;;;;;;5083968;28;20035;-72
2023/05/22 09:26:04;;;;;;;12.88;7.90;;;24.80;99.90;;;;;;5084730;28;20078;-71
2023/05/22 09:28:36;;;;;;;11.23;6.13;;;24.70;99.90;;;;;;5083241;28;20036;-72
2023/05/22 09:31:02;;;;;;;17.30;6.25;;;24.60;99.90;;;;;;5088654;28;20051;-70
2023/05/22 09:33:28;;;;;;;15.82;7.45;;;24.60;99.90;;;;;;5089039;28;20054;-72
2023/05/22 09:35:57;;;;;;;11.00;6.05;;;24.50;99.90;;;;;;5093269;28;20036;-72
2023/05/22 09:38:26;;;;;;;9.70;6.25;;;24.40;99.90;;;;;;5084979;28;20032;-72
2023/05/22 09:40:53;;;;;;;10.30;6.20;;;24.60;99.90;;;;;;5109266;27;20044;-71
2023/05/22 09:43:25;;;;;;;11.43;6.38;;;24.60;99.90;;;;;;5087038;28;20026;-71
2023/05/22 09:46:00;;;;;;;12.25;6.00;;;24.90;99.90;;;;;;5093789;28;20122;-72
2023/05/22 09:48:25;;;;;;;12.75;6.82;;;25.00;99.90;;;;;;5085283;28;20033;-72
2023/05/22 09:50:53;;;;;;;11.93;6.20;;;25.10;99.90;;;;;;5091485;28;20096;-70
2023/05/22 09:53:29;;;;;;;10.27;6.40;;;25.00;99.90;;;;;;5086678;28;20032;-70
2023/05/22 09:55:58;;;;;;;14.68;7.10;;;24.90;99.90;;;;;;5078955;28;20028;-73
2023/05/22 09:58:26;;;;;;;8.48;5.50;;;24.90;99.90;;;;;;5089783;28;20024;-71
2023/05/22 10:00:56;;;;;;;11.75;6.63;;;25.00;99.90;;;;;;5087163;28;20020;-73
2023/05/22 10:03:30;;;;;;;12.35;5.88;;;25.10;99.90;;;;;;5082071;28;20113;-71
2023/05/22 10:05:57;;;;;;;13.00;5.50;;;25.40;99.90;;;;;;5086290;28;20085;-71
2023/05/22 10:08:40;;;;;;;13.25;6.57;;;25.60;99.90;;;;;;5093562;28;20031;-70
2023/05/22 10:11:10;;;;;;;10.60;6.22;;;25.90;99.90;;;;;;5090175;28;20435;-72
2023/05/22 10:13:36;;;;;;;11.27;5.93;;;26.10;99.90;;;;;;5085713;28;20424;-73
2023/05/22 10:16:06;;;;;;;13.98;6.20;;;26.20;99.90;;;;;;5089706;28;20094;-73
2023/05/22 10:18:32;;;;;;;10.38;5.97;;;26.10;99.90;;;;;;5089347;28;20025;-72
2023/05/22 10:20:59;;;;;;;7.75;5.05;;;25.90;99.90;;;;;;5087444;28;20035;-72
2023/05/22 10:23:29;;;;;;;12.45;5.78;;;25.80;99.90;;;;;;5091613;28;20062;-72
2023/05/22 10:25:58;;;;;;;8.65;5.85;;;25.80;99.90;;;;;;5093642;28;20051;-72
2023/05/22 10:28:29;;;;;;;10.32;6.55;;;26.00;99.90;;;;;;5088451;28;20028;-71
2023/05/22 10:31:08;;;;;;;13.57;5.68;;;26.10;99.90;;;;;;5087947;28;20040;-74
2023/05/22 10:33:40;;;;;;;9.63;5.40;;;26.00;99.90;;;;;;5091379;28;20547;-71
2023/05/22 10:36:09;;;;;;;16.98;6.25;;;25.90;99.90;;;;;;5089151;28;20028;-71
2023/05/22 10:39:09;;;;;;;13.10;6.10;;;25.90;99.90;;;;;;5090935;28;20036;-71
2023/05/22 10:41:47;;;;;;;11.63;5.13;;;26.00;99.90;;;;;;5033732;28;20032;-71
2023/05/22 10:44:12;;;;;;;12.35;6.35;;;26.30;99.90;;;;;;5086842;28;20031;-71
2023/05/22 10:46:49;;;;;;;8.77;4.93;;;26.20;99.90;;;;;;5090884;28;20028;-72
2023/05/22 10:49:22;;;;;;;7.30;4.53;;;26.20;99.90;;;;;;5088996;28;20388;-71
2023/05/22 10:51:48;;;;;;;10.68;5.72;;;26.20;99.90;;;;;;5086439;28;20020;-73
2023/05/22 10:54:14;;;;;;;9.80;5.82;;;26.10;99.90;;;;;;5089554;28;20106;-72
2023/05/22 10:56:40;;;;;;;15.13;6.85;;;25.90;99.90;;;;;;5087611;28;20201;-72
2023/05/22 10:59:08;;;;;;;11.05;5.47;;;25.90;99.90;;;;;;5093237;28;20143;-72
2023/05/22 11:01:36;;;;;;;10.05;5.78;;;25.80;99.90;;;;;;5086166;28;20059;-71
2023/05/22 11:04:07;;;;;;;13.45;6.45;;;25.80;99.90;;;;;;5087437;28;20040;-71
2023/05/22 11:06:34;;;;;;;11.48;6.32;;;25.80;99.90;;;;;;5090982;28;20385;-71
2023/05/22 11:09:18;;;;;;;11.93;5.88;;;25.90;99.90;;;;;;5086842;28;20036;-71
2023/05/22 11:11:44;;;;;;;19.00;7.13;;;25.90;99.90;;;;;;5087658;27;20085;-72
2023/05/22 11:14:12;;;;;;;9.13;6.20;;;26.00;99.90;;;;;;5086667;28;20429;-70
2023/05/22 11:16:38;;;;;;;10.15;5.68;;;26.00;99.90;;;;;;5086700;28;20028;-72
2023/05/22 11:19:09;;;;;;;15.15;5.57;;;26.10;99.90;;;;;;5087107;28;20040;-72
2023/05/22 11:21:59;;;;;;;9.65;4.78;;;26.10;99.90;;;;;;5088057;28;20039;-71
2023/05/22 11:24:24;;;;;;;13.33;5.23;;;26.40;99.90;;;;;;5085086;28;20036;-70
2023/05/22 11:27:08;;;;;;;13.40;6.30;;;26.70;99.90;;;;;;5087624;28;20030;-70
2023/05/22 11:29:39;;;;;;;7.88;5.18;;;26.70;99.80;;;;;;5085050;28;20422;-70
2023/05/22 11:32:07;;;;;;;10.38;5.80;;;26.60;99.90;;;;;;5090926;28;20028;-70
2023/05/22 11:34:33;;;;;;;13.20;5.35;;;26.60;99.90;;;;;;5089126;28;20495;-70
2023/05/22 11:36:59;;;;;;;9.82;5.63;;;26.40;99.90;;;;;;5093094;28;20050;-70
2023/05/22 11:39:27;;;;;;;11.63;5.80;;;26.40;99.90;;;;;;5091266;28;20043;-71
2023/05/22 11:41:59;;;;;;;11.00;5.63;;;26.50;99.90;;;;;;5084565;28;20032;-70
2023/05/22 11:44:34;;;;;;;7.10;4.68;;;26.60;99.80;;;;;;5090362;28;20039;-72
2023/05/22 11:47:06;;;;;;;14.05;5.65;;;26.70;99.90;;;;;;5083704;28;20035;-71
2023/05/22 11:49:31;;;;;;;11.55;6.03;;;26.70;99.50;;;;;;5087741;28;20039;-71
2023/05/22 11:52:00;;;;;;;12.07;4.93;;;26.50;99.50;;;;;;5090151;28;20040;-72
2023/05/22 11:54:25;;;;;;;9.85;4.50;;;26.40;99.90;;;;;;5092261;28;20031;-72
2023/05/22 11:56:57;;;;;;;13.75;5.30;;;26.30;99.90;;;;;;5085065;28;20036;-71
2023/05/22 11:59:23;;;;;;;7.53;4.35;;;26.30;99.50;;;;;;5092777;28;20031;-71
2023/05/22 12:01:49;;;;;;;10.35;4.93;;;26.40;99.80;;;;;;5093617;28;20396;-70
2023/05/22 12:04:17;;;;;;;8.55;5.03;;;26.30;99.50;;;;;;5095615;28;20035;-71
2023/05/22 12:06:43;;;;;;;8.88;4.30;;;26.30;99.00;;;;;;5083354;28;20108;-70
2023/05/22 12:09:12;;;;;;;12.00;4.88;;;26.20;99.40;;;;;;5084328;28;20082;-71
2023/05/22 12:11:37;;;;;;;10.75;4.10;;;26.40;99.90;;;;;;5086343;28;20028;-70
2023/05/22 12:14:04;;;;;;;8.18;4.10;;;26.50;98.70;;;;;;5090812;28;20047;-71
2023/05/22 12:16:35;;;;;;;9.68;3.65;;;26.40;98.90;;;;;;5089960;28;20047;-71
2023/05/22 12:19:08;;;;;;;8.00;4.35;;;26.50;98.80;;;;;;5088098;28;20036;-70
2023/05/22 12:21:35;;;;;;;10.88;4.32;;;26.30;98.30;;;;;;5087980;28;20036;-71
2023/05/22 12:24:07;;;;;;;14.05;5.72;;;26.20;99.80;;;;;;5083166;28;20036;-71
2023/05/22 12:26:32;;;;;;;10.15;4.38;;;26.10;99.40;;;;;;5094916;28;20085;-72
2023/05/22 12:29:04;;;;;;;10.68;5.05;;;26.10;99.90;;;;;;5089707;28;20036;-70
2023/05/22 12:31:37;;;;;;;12.13;5.70;;;26.00;99.70;;;;;;5087003;28;20032;-72
2023/05/22 12:34:08;;;;;;;9.32;3.85;;;26.00;98.80;;;;;;5093592;28;20143;-70
2023/05/22 12:36:37;;;;;;;14.10;5.45;;;26.00;99.80;;;;;;5094308;28;20036;-72
2023/05/22 12:39:08;;;;;;;8.27;4.78;;;25.90;99.90;;;;;;5094073;28;20036;-71
2023/05/22 12:41:37;;;;;;;11.02;4.80;;;25.90;99.90;;;;;;5092947;28;20039;-71
2023/05/22 12:44:03;;;;;;;18.48;4.97;;;25.90;99.90;;;;;;5088226;28;20028;-70
2023/05/22 12:46:32;;;;;;;15.73;5.50;;;26.00;99.90;;;;;;5100535;28;20122;-71